X  ZamknijMetar - Lotnicze dane pogodowe     EPKT Katowice International Airport

Temperatura

14°C Temperatura

6°C Punkt rosy

59% Wilgotność



Wiatr

24 km/h

15 MPH

 7 m/s

13 KTS



220°
SW
Obecne warunki

Bezchmurnie Bezchmurnie
Ciśnienie 1009.92 (hPa) - 29.82 (in)
Widoczność 6.2 (mi) - 10 (km)
Lotnisko
Kod lotniska EPKT

Lokalizacja Katowice International Airport 23 (km)

Metar:
EPKT 201930Z 22013KT CAVOK 14/06 Q1010 WS ALL RWY

Czas: 20-10-2021 21:30